sensor_id;sensor_type;location;lat;lon;timestamp;pressure;altitude;pressure_sealevel;temperature;humidity
11856;BME280;5987;53.140;8.904;2022-08-01T00:00:42;101304.56;;;17.15;100.00
11856;BME280;5987;53.140;8.904;2022-08-01T00:03:47;101311.50;;;17.18;100.00
11856;BME280;5987;53.140;8.904;2022-08-01T00:06:51;101319.38;;;17.19;100.00
11856;BME280;5987;53.140;8.904;2022-08-01T00:09:55;101311.59;;;17.16;100.00
11856;BME280;5987;53.140;8.904;2022-08-01T00:12:58;101315.09;;;17.17;100.00
11856;BME280;5987;53.140;8.904;2022-08-01T00:16:02;101320.13;;;17.21;100.00
11856;BME280;5987;53.140;8.904;2022-08-01T00:19:07;101316.72;;;17.19;100.00
11856;BME280;5987;53.140;8.904;2022-08-01T00:22:11;101317.47;;;17.21;100.00
11856;BME280;5987;53.140;8.904;2022-08-01T00:25:15;101317.66;;;17.18;100.00
11856;BME280;5987;53.140;8.904;2022-08-01T00:28:18;101313.38;;;17.15;100.00
11856;BME280;5987;53.140;8.904;2022-08-01T00:31:22;101316.91;;;17.16;100.00
11856;BME280;5987;53.140;8.904;2022-08-01T00:34:27;101321.41;;;17.14;100.00
11856;BME280;5987;53.140;8.904;2022-08-01T00:37:31;101323.13;;;17.15;100.00
11856;BME280;5987;53.140;8.904;2022-08-01T00:40:34;101318.78;;;17.14;100.00
11856;BME280;5987;53.140;8.904;2022-08-01T00:43:38;101321.41;;;17.14;100.00
11856;BME280;5987;53.140;8.904;2022-08-01T00:46:42;101318.78;;;17.14;100.00
11856;BME280;5987;53.140;8.904;2022-08-01T00:49:47;101321.59;;;17.11;100.00
11856;BME280;5987;53.140;8.904;2022-08-01T00:52:51;101316.28;;;17.11;100.00
11856;BME280;5987;53.140;8.904;2022-08-01T00:55:56;101320.75;;;17.10;100.00
11856;BME280;5987;53.140;8.904;2022-08-01T00:59:00;101318.19;;;17.09;100.00
11856;BME280;5987;53.140;8.904;2022-08-01T01:02:04;101321.97;;;17.05;100.00
11856;BME280;5987;53.140;8.904;2022-08-01T01:05:18;101329.84;;;17.06;100.00
11856;BME280;5987;53.140;8.904;2022-08-01T01:08:31;101327.28;;;17.05;100.00
11856;BME280;5987;53.140;8.904;2022-08-01T01:11:46;101330.84;;;17.04;100.00
11856;BME280;5987;53.140;8.904;2022-08-01T01:15:02;101330.94;;;17.02;100.00
11856;BME280;5987;53.140;8.904;2022-08-01T01:18:13;101332.56;;;17.05;100.00
11856;BME280;5987;53.140;8.904;2022-08-01T01:21:47;101341.56;;;17.02;100.00
11856;BME280;5987;53.140;8.904;2022-08-01T01:25:22;101342.56;;;17.00;100.00
11856;BME280;5987;53.140;8.904;2022-08-01T01:28:38;101345.97;;;17.02;100.00
11856;BME280;5987;53.140;8.904;2022-08-01T01:32:02;101348.50;;;17.05;100.00
11856;BME280;5987;53.140;8.904;2022-08-01T01:35:14;101352.44;;;16.97;100.00
11856;BME280;5987;53.140;8.904;2022-08-01T01:38:23;101352.25;;;17.01;100.00
11856;BME280;5987;53.140;8.904;2022-08-01T01:41:30;101353.94;;;17.02;100.00
11856;BME280;5987;53.140;8.904;2022-08-01T01:44:35;101350.44;;;17.01;100.00
11856;BME280;5987;53.140;8.904;2022-08-01T01:47:42;101347.88;;;17.00;100.00
11856;BME280;5987;53.140;8.904;2022-08-01T01:50:49;101351.47;;;16.98;100.00
11856;BME280;5987;53.140;8.904;2022-08-01T01:53:56;101348.25;;;16.93;100.00
11856;BME280;5987;53.140;8.904;2022-08-01T01:57:03;101359.78;;;16.92;100.00
11856;BME280;5987;53.140;8.904;2022-08-01T02:00:10;101359.00;;;16.90;100.00
11856;BME280;5987;53.140;8.904;2022-08-01T02:03:18;101356.56;;;16.86;100.00
11856;BME280;5987;53.140;8.904;2022-08-01T02:06:25;101358.47;;;16.84;100.00
11856;BME280;5987;53.140;8.904;2022-08-01T02:09:31;101351.78;;;16.76;100.00
11856;BME280;5987;53.140;8.904;2022-08-01T02:12:41;101360.75;;;16.74;100.00
11856;BME280;5987;53.140;8.904;2022-08-01T02:15:47;101358.19;;;16.72;100.00
11856;BME280;5987;53.140;8.904;2022-08-01T02:19:03;101354.75;;;16.70;100.00
11856;BME280;5987;53.140;8.904;2022-08-01T02:22:14;101352.94;;;16.71;100.00
11856;BME280;5987;53.140;8.904;2022-08-01T02:25:25;101352.19;;;16.69;100.00
11856;BME280;5987;53.140;8.904;2022-08-01T02:28:32;101360.50;;;16.62;100.00
11856;BME280;5987;53.140;8.904;2022-08-01T02:31:41;101358.75;;;16.61;100.00
11856;BME280;5987;53.140;8.904;2022-08-01T02:34:52;101355.94;;;16.64;100.00
11856;BME280;5987;53.140;8.904;2022-08-01T02:38:00;101356.19;;;16.60;100.00
11856;BME280;5987;53.140;8.904;2022-08-01T02:41:09;101365.09;;;16.59;100.00
11856;BME280;5987;53.140;8.904;2022-08-01T02:44:24;101366.88;;;16.58;100.00
11856;BME280;5987;53.140;8.904;2022-08-01T02:47:32;101362.34;;;16.60;100.00
11856;BME280;5987;53.140;8.904;2022-08-01T02:50:39;101365.34;;;16.54;100.00
11856;BME280;5987;53.140;8.904;2022-08-01T02:53:46;101367.19;;;16.52;100.00
11856;BME280;5987;53.140;8.904;2022-08-01T02:56:52;101370.81;;;16.51;100.00
11856;BME280;5987;53.140;8.904;2022-08-01T03:00:00;101371.91;;;16.47;100.00
11856;BME280;5987;53.140;8.904;2022-08-01T03:03:07;101369.47;;;16.42;100.00
11856;BME280;5987;53.140;8.904;2022-08-01T03:06:16;101373.19;;;16.40;100.00
11856;BME280;5987;53.140;8.904;2022-08-01T03:09:22;101374.19;;;16.37;100.00
11856;BME280;5987;53.140;8.904;2022-08-01T03:12:29;101379.31;;;16.40;100.00
11856;BME280;5987;53.140;8.904;2022-08-01T03:15:39;101382.34;;;16.33;100.00
11856;BME280;5987;53.140;8.904;2022-08-01T03:18:44;101386.72;;;16.34;100.00
11856;BME280;5987;53.140;8.904;2022-08-01T03:21:51;101391.09;;;16.35;100.00
11856;BME280;5987;53.140;8.904;2022-08-01T03:24:58;101392.81;;;16.36;100.00
11856;BME280;5987;53.140;8.904;2022-08-01T03:28:06;101389.38;;;16.34;100.00
11856;BME280;5987;53.140;8.904;2022-08-01T03:31:12;101396.41;;;16.35;100.00
11856;BME280;5987;53.140;8.904;2022-08-01T03:34:18;101400.16;;;16.31;100.00
11856;BME280;5987;53.140;8.904;2022-08-01T03:37:32;101405.63;;;16.27;100.00
11856;BME280;5987;53.140;8.904;2022-08-01T03:40:43;101404.59;;;16.30;100.00
11856;BME280;5987;53.140;8.904;2022-08-01T03:43:57;101405.28;;;16.34;100.00
11856;BME280;5987;53.140;8.904;2022-08-01T03:47:07;101414.25;;;16.31;100.00
11856;BME280;5987;53.140;8.904;2022-08-01T03:50:14;101410.03;;;16.27;100.00
11856;BME280;5987;53.140;8.904;2022-08-01T03:53:26;101413.31;;;16.32;100.00
11856;BME280;5987;53.140;8.904;2022-08-01T03:56:33;101414.31;;;16.29;100.00
11856;BME280;5987;53.140;8.904;2022-08-01T03:59:39;101412.47;;;16.32;100.00
11856;BME280;5987;53.140;8.904;2022-08-01T04:02:43;101412.47;;;16.32;100.00
11856;BME280;5987;53.140;8.904;2022-08-01T04:05:48;101416.03;;;16.31;100.00
11856;BME280;5987;53.140;8.904;2022-08-01T04:08:54;101434.69;;;16.29;100.00
11856;BME280;5987;53.140;8.904;2022-08-01T04:11:59;101431.09;;;16.30;100.00
11856;BME280;5987;53.140;8.904;2022-08-01T04:15:13;101425.94;;;16.27;100.00
11856;BME280;5987;53.140;8.904;2022-08-01T04:18:17;101432.28;;;16.24;100.00
11856;BME280;5987;53.140;8.904;2022-08-01T04:21:25;101430.31;;;16.28;100.00
11856;BME280;5987;53.140;8.904;2022-08-01T04:24:33;101428.59;;;16.27;100.00
11856;BME280;5987;53.140;8.904;2022-08-01T04:27:42;101425.72;;;16.32;100.00
11856;BME280;5987;53.140;8.904;2022-08-01T04:30:55;101437.31;;;16.29;100.00
11856;BME280;5987;53.140;8.904;2022-08-01T04:34:06;101449.88;;;16.25;100.00
11856;BME280;5987;53.140;8.904;2022-08-01T04:37:11;101446.44;;;16.23;100.00
11856;BME280;5987;53.140;8.904;2022-08-01T04:40:19;101454.56;;;16.20;100.00
11856;BME280;5987;53.140;8.904;2022-08-01T04:43:24;101450.81;;;16.24;100.00
11856;BME280;5987;53.140;8.904;2022-08-01T04:46:28;101462.63;;;16.17;100.00
11856;BME280;5987;53.140;8.904;2022-08-01T04:49:34;101462.63;;;16.17;100.00
11856;BME280;5987;53.140;8.904;2022-08-01T04:52:50;101466.25;;;16.16;100.00
11856;BME280;5987;53.140;8.904;2022-08-01T04:55:55;101467.16;;;16.15;100.00
11856;BME280;5987;53.140;8.904;2022-08-01T04:58:59;101467.16;;;16.15;100.00
11856;BME280;5987;53.140;8.904;2022-08-01T05:02:21;101468.25;;;16.11;100.00
11856;BME280;5987;53.140;8.904;2022-08-01T05:05:25;101465.84;;;16.06;100.00
11856;BME280;5987;53.140;8.904;2022-08-01T05:08:29;101470.25;;;16.06;100.00
11856;BME280;5987;53.140;8.904;2022-08-01T05:11:34;101470.44;;;16.03;100.00
11856;BME280;5987;53.140;8.904;2022-08-01T05:14:37;101475.66;;;16.04;100.00
11856;BME280;5987;53.140;8.904;2022-08-01T05:17:41;101470.44;;;16.03;100.00
11856;BME280;5987;53.140;8.904;2022-08-01T05:20:45;101483.97;;;15.97;100.00
11856;BME280;5987;53.140;8.904;2022-08-01T05:23:49;101477.59;;;16.01;100.00
11856;BME280;5987;53.140;8.904;2022-08-01T05:26:55;101482.75;;;16.04;100.00
11856;BME280;5987;53.140;8.904;2022-08-01T05:29:58;101500.22;;;15.89;100.00
11856;BME280;5987;53.140;8.904;2022-08-01T05:33:02;101502.72;;;15.92;100.00
11856;BME280;5987;53.140;8.904;2022-08-01T05:36:07;101505.59;;;15.87;100.00
11856;BME280;5987;53.140;8.904;2022-08-01T05:39:11;101512.63;;;15.88;100.00
11856;BME280;5987;53.140;8.904;2022-08-01T05:42:16;101520.88;;;15.82;100.00
11856;BME280;5987;53.140;8.904;2022-08-01T05:45:20;101519.00;;;15.84;100.00
11856;BME280;5987;53.140;8.904;2022-08-01T05:48:24;101518.00;;;15.87;100.00
11856;BME280;5987;53.140;8.904;2022-08-01T05:51:27;101521.34;;;15.90;100.00
11856;BME280;5987;53.140;8.904;2022-08-01T05:54:31;101525.88;;;15.88;100.00
11856;BME280;5987;53.140;8.904;2022-08-01T05:57:36;101522.00;;;15.95;100.00
11856;BME280;5987;53.140;8.904;2022-08-01T06:00:41;101529.28;;;15.90;100.00
11856;BME280;5987;53.140;8.904;2022-08-01T06:03:45;101538.31;;;15.86;100.00
11856;BME280;5987;53.140;8.904;2022-08-01T06:06:49;101541.69;;;15.90;100.00
11856;BME280;5987;53.140;8.904;2022-08-01T06:09:53;101547.22;;;15.85;100.00
11856;BME280;5987;53.140;8.904;2022-08-01T06:12:58;101545.81;;;15.76;100.00
11856;BME280;5987;53.140;8.904;2022-08-01T06:16:05;101546.25;;;15.86;100.00
11856;BME280;5987;53.140;8.904;2022-08-01T06:19:09;101559.25;;;15.72;100.00
11856;BME280;5987;53.140;8.904;2022-08-01T06:22:12;101560.00;;;15.75;100.00
11856;BME280;5987;53.140;8.904;2022-08-01T06:25:16;101568.53;;;15.82;100.00
11856;BME280;5987;53.140;8.904;2022-08-01T06:28:24;101571.88;;;15.67;99.30
11856;BME280;5987;53.140;8.904;2022-08-01T06:31:27;101574.28;;;15.52;98.67
11856;BME280;5987;53.140;8.904;2022-08-01T06:34:35;101576.34;;;15.46;98.22
11856;BME280;5987;53.140;8.904;2022-08-01T06:37:38;101582.06;;;15.36;97.63
11856;BME280;5987;53.140;8.904;2022-08-01T06:40:42;101586.22;;;15.42;97.31
11856;BME280;5987;53.140;8.904;2022-08-01T06:43:47;101588.22;;;15.37;97.01
11856;BME280;5987;53.140;8.904;2022-08-01T06:46:51;101592.66;;;15.36;96.75
11856;BME280;5987;53.140;8.904;2022-08-01T06:49:55;101591.00;;;15.34;96.01
11856;BME280;5987;53.140;8.904;2022-08-01T06:52:58;101588.94;;;15.40;96.00
11856;BME280;5987;53.140;8.904;2022-08-01T06:56:03;101587.31;;;15.57;96.09
11856;BME280;5987;53.140;8.904;2022-08-01T06:59:09;101584.25;;;15.47;95.53
11856;BME280;5987;53.140;8.904;2022-08-01T07:02:13;101594.81;;;15.47;95.12
11856;BME280;5987;53.140;8.904;2022-08-01T07:05:18;101592.09;;;15.49;94.82
11856;BME280;5987;53.140;8.904;2022-08-01T07:08:21;101594.69;;;15.50;94.46
11856;BME280;5987;53.140;8.904;2022-08-01T07:11:25;101588.94;;;15.59;94.14
11856;BME280;5987;53.140;8.904;2022-08-01T07:14:30;101588.84;;;15.63;93.84
11856;BME280;5987;53.140;8.904;2022-08-01T07:17:37;101592.41;;;15.61;93.21
11856;BME280;5987;53.140;8.904;2022-08-01T07:20:42;101596.13;;;15.57;92.72
11856;BME280;5987;53.140;8.904;2022-08-01T07:23:54;101595.72;;;15.67;92.18
11856;BME280;5987;53.140;8.904;2022-08-01T07:26:57;101602.53;;;15.71;91.86
11856;BME280;5987;53.140;8.904;2022-08-01T07:30:22;101598.75;;;15.57;90.68
11856;BME280;5987;53.140;8.904;2022-08-01T07:33:27;101603.66;;;15.67;90.24
11856;BME280;5987;53.140;8.904;2022-08-01T07:36:51;101609.41;;;15.75;89.56
11856;BME280;5987;53.140;8.904;2022-08-01T07:39:54;101610.72;;;15.66;88.79
11856;BME280;5987;53.140;8.904;2022-08-01T07:42:58;101630.22;;;15.84;88.61
11856;BME280;5987;53.140;8.904;2022-08-01T07:46:04;101633.38;;;15.92;88.47
11856;BME280;5987;53.140;8.904;2022-08-01T07:49:08;101632.56;;;15.90;88.00
11856;BME280;5987;53.140;8.904;2022-08-01T07:52:11;101635.81;;;15.97;87.69
11856;BME280;5987;53.140;8.904;2022-08-01T07:55:15;101635.81;;;15.97;87.03
11856;BME280;5987;53.140;8.904;2022-08-01T07:58:19;101646.59;;;16.11;86.52
11856;BME280;5987;53.140;8.904;2022-08-01T08:01:24;101647.03;;;16.58;85.86
11856;BME280;5987;53.140;8.904;2022-08-01T08:04:29;101653.31;;;16.74;81.94
11856;BME280;5987;53.140;8.904;2022-08-01T08:07:32;101646.16;;;16.76;81.15
11856;BME280;5987;53.140;8.904;2022-08-01T08:10:36;101642.75;;;17.09;80.98
11856;BME280;5987;53.140;8.904;2022-08-01T08:13:42;101654.72;;;16.81;80.41
11856;BME280;5987;53.140;8.904;2022-08-01T08:16:47;101653.44;;;16.90;80.47
11856;BME280;5987;53.140;8.904;2022-08-01T08:19:51;101656.59;;;16.79;80.91
11856;BME280;5987;53.140;8.904;2022-08-01T08:22:54;101655.81;;;16.77;81.26
11856;BME280;5987;53.140;8.904;2022-08-01T08:26:00;101660.44;;;16.74;80.53
11856;BME280;5987;53.140;8.904;2022-08-01T08:29:03;101660.41;;;17.44;79.89
11856;BME280;5987;53.140;8.904;2022-08-01T08:32:09;101653.81;;;17.69;76.04
11856;BME280;5987;53.140;8.904;2022-08-01T08:35:12;101664.63;;;17.48;74.59
11856;BME280;5987;53.140;8.904;2022-08-01T08:38:24;101664.03;;;17.25;74.14
11856;BME280;5987;53.140;8.904;2022-08-01T08:41:31;101668.50;;;17.25;74.11
11856;BME280;5987;53.140;8.904;2022-08-01T08:44:41;101664.03;;;17.76;72.88
11856;BME280;5987;53.140;8.904;2022-08-01T08:47:48;101681.91;;;17.39;71.12
11856;BME280;5987;53.140;8.904;2022-08-01T08:50:55;101684.13;;;17.64;71.42
11856;BME280;5987;53.140;8.904;2022-08-01T08:54:02;101688.19;;;18.21;70.78
11856;BME280;5987;53.140;8.904;2022-08-01T08:57:07;101687.69;;;18.46;68.35
11856;BME280;5987;53.140;8.904;2022-08-01T09:00:14;101693.25;;;18.10;68.03
11856;BME280;5987;53.140;8.904;2022-08-01T09:03:19;101686.34;;;17.90;69.22
11856;BME280;5987;53.140;8.904;2022-08-01T09:06:24;101685.38;;;18.40;67.66
11856;BME280;5987;53.140;8.904;2022-08-01T09:09:28;101687.78;;;18.45;66.58
11856;BME280;5987;53.140;8.904;2022-08-01T09:12:33;101686.09;;;18.74;64.87
11856;BME280;5987;53.140;8.904;2022-08-01T09:15:43;101687.44;;;19.28;64.67
11856;BME280;5987;53.140;8.904;2022-08-01T09:18:48;101699.28;;;19.08;63.66
11856;BME280;5987;53.140;8.904;2022-08-01T09:21:59;101702.16;;;19.19;64.60
11856;BME280;5987;53.140;8.904;2022-08-01T09:25:07;101694.59;;;19.42;64.94
11856;BME280;5987;53.140;8.904;2022-08-01T09:28:11;101704.38;;;18.96;62.95
11856;BME280;5987;53.140;8.904;2022-08-01T09:31:18;101717.41;;;19.01;62.91
11856;BME280;5987;53.140;8.904;2022-08-01T09:34:28;101713.75;;;18.72;62.57
11856;BME280;5987;53.140;8.904;2022-08-01T09:37:32;101716.09;;;18.46;62.97
11856;BME280;5987;53.140;8.904;2022-08-01T09:40:50;101719.81;;;19.06;62.93
11856;BME280;5987;53.140;8.904;2022-08-01T09:43:54;101723.94;;;18.95;61.39
11856;BME280;5987;53.140;8.904;2022-08-01T09:46:58;101729.53;;;19.21;61.48
11856;BME280;5987;53.140;8.904;2022-08-01T09:50:10;101737.63;;;19.64;60.96
11856;BME280;5987;53.140;8.904;2022-08-01T09:53:16;101724.50;;;19.16;61.00
11856;BME280;5987;53.140;8.904;2022-08-01T09:56:40;101725.75;;;19.25;61.32
11856;BME280;5987;53.140;8.904;2022-08-01T09:59:48;101735.34;;;19.44;60.72
11856;BME280;5987;53.140;8.904;2022-08-01T10:03:20;101732.50;;;19.16;60.67
11856;BME280;5987;53.140;8.904;2022-08-01T10:06:26;101725.72;;;19.56;61.09
11856;BME280;5987;53.140;8.904;2022-08-01T10:09:32;101731.69;;;19.30;59.24
11856;BME280;5987;53.140;8.904;2022-08-01T10:12:43;101734.44;;;19.29;60.61
11856;BME280;5987;53.140;8.904;2022-08-01T10:15:50;101733.03;;;19.37;60.14
11856;BME280;5987;53.140;8.904;2022-08-01T10:18:55;101741.13;;;19.50;59.98
11856;BME280;5987;53.140;8.904;2022-08-01T10:22:03;101736.19;;;19.14;57.31
11856;BME280;5987;53.140;8.904;2022-08-01T10:25:09;101734.97;;;19.64;56.92
11856;BME280;5987;53.140;8.904;2022-08-01T10:28:16;101731.41;;;19.35;57.97
11856;BME280;5987;53.140;8.904;2022-08-01T10:31:26;101735.44;;;19.57;58.75
11856;BME280;5987;53.140;8.904;2022-08-01T10:34:34;101743.78;;;19.81;58.18
11856;BME280;5987;53.140;8.904;2022-08-01T10:37:40;101737.81;;;19.47;57.44
11856;BME280;5987;53.140;8.904;2022-08-01T10:40:56;101740.28;;;19.64;57.01
11856;BME280;5987;53.140;8.904;2022-08-01T10:44:01;101751.31;;;19.44;55.55
11856;BME280;5987;53.140;8.904;2022-08-01T10:47:10;101755.53;;;19.32;56.26
11856;BME280;5987;53.140;8.904;2022-08-01T10:50:26;101753.88;;;19.15;56.41
11856;BME280;5987;53.140;8.904;2022-08-01T10:53:35;101750.00;;;19.65;56.93
11856;BME280;5987;53.140;8.904;2022-08-01T10:56:48;101755.34;;;19.65;57.18
11856;BME280;5987;53.140;8.904;2022-08-01T10:59:52;101759.66;;;19.37;57.16
11856;BME280;5987;53.140;8.904;2022-08-01T11:03:03;101751.25;;;19.29;57.38
11856;BME280;5987;53.140;8.904;2022-08-01T11:06:17;101751.78;;;19.50;58.43
11856;BME280;5987;53.140;8.904;2022-08-01T11:09:30;101756.78;;;19.26;58.67
11856;BME280;5987;53.140;8.904;2022-08-01T11:12:39;101751.69;;;19.07;58.77
11856;BME280;5987;53.140;8.904;2022-08-01T11:15:45;101761.34;;;19.24;58.37
11856;BME280;5987;53.140;8.904;2022-08-01T11:18:52;101750.75;;;18.92;58.55
11856;BME280;5987;53.140;8.904;2022-08-01T11:21:59;101757.91;;;19.22;58.04
11856;BME280;5987;53.140;8.904;2022-08-01T11:25:07;101757.91;;;19.22;56.19
11856;BME280;5987;53.140;8.904;2022-08-01T11:28:19;101751.63;;;19.23;55.83
11856;BME280;5987;53.140;8.904;2022-08-01T11:31:34;101753.72;;;19.77;56.62
11856;BME280;5987;53.140;8.904;2022-08-01T11:34:55;101754.34;;;19.52;57.24
11856;BME280;5987;53.140;8.904;2022-08-01T11:38:23;101752.78;;;19.33;56.85
11856;BME280;5987;53.140;8.904;2022-08-01T11:41:32;101754.72;;;19.46;56.74
11856;BME280;5987;53.140;8.904;2022-08-01T11:44:49;101755.97;;;19.40;56.12
11856;BME280;5987;53.140;8.904;2022-08-01T11:47:53;101754.09;;;19.26;56.43
11856;BME280;5987;53.140;8.904;2022-08-01T11:50:58;101751.25;;;19.29;56.45
11856;BME280;5987;53.140;8.904;2022-08-01T11:54:03;101748.97;;;19.23;55.42
11856;BME280;5987;53.140;8.904;2022-08-01T11:57:12;101750.22;;;19.01;55.46
11856;BME280;5987;53.140;8.904;2022-08-01T12:00:18;101766.19;;;19.62;55.45
11856;BME280;5987;53.140;8.904;2022-08-01T12:03:25;101778.63;;;19.62;55.81
11856;BME280;5987;53.140;8.904;2022-08-01T12:06:35;101766.91;;;19.80;55.06
11856;BME280;5987;53.140;8.904;2022-08-01T12:09:42;101769.81;;;19.76;54.62
11856;BME280;5987;53.140;8.904;2022-08-01T12:12:50;101772.06;;;20.27;55.48
11856;BME280;5987;53.140;8.904;2022-08-01T12:15:54;101775.22;;;20.04;55.23
11856;BME280;5987;53.140;8.904;2022-08-01T12:18:58;101779.00;;;19.41;54.72
11856;BME280;5987;53.140;8.904;2022-08-01T12:22:08;101768.84;;;19.62;55.98
11856;BME280;5987;53.140;8.904;2022-08-01T12:25:14;101770.66;;;20.21;55.07
11856;BME280;5987;53.140;8.904;2022-08-01T12:28:19;101773.09;;;19.81;55.59
11856;BME280;5987;53.140;8.904;2022-08-01T12:31:32;101768.16;;;19.89;55.04
11856;BME280;5987;53.140;8.904;2022-08-01T12:34:36;101762.56;;;19.63;54.97
11856;BME280;5987;53.140;8.904;2022-08-01T12:37:42;101754.66;;;19.17;55.74
11856;BME280;5987;53.140;8.904;2022-08-01T12:40:47;101769.59;;;19.64;56.31
11856;BME280;5987;53.140;8.904;2022-08-01T12:43:58;101778.00;;;19.73;54.92
11856;BME280;5987;53.140;8.904;2022-08-01T12:47:05;101770.03;;;19.87;56.22
11856;BME280;5987;53.140;8.904;2022-08-01T12:50:14;101770.63;;;19.17;56.03
11856;BME280;5987;53.140;8.904;2022-08-01T12:53:19;101775.97;;;19.17;57.57
11856;BME280;5987;53.140;8.904;2022-08-01T12:56:32;101780.63;;;18.97;56.81
11856;BME280;5987;53.140;8.904;2022-08-01T12:59:37;101775.78;;;19.20;56.61
11856;BME280;5987;53.140;8.904;2022-08-01T13:02:44;101769.16;;;19.27;56.64
11856;BME280;5987;53.140;8.904;2022-08-01T13:05:50;101767.31;;;19.28;55.45
11856;BME280;5987;53.140;8.904;2022-08-01T13:08:54;101779.84;;;19.42;55.12
11856;BME280;5987;53.140;8.904;2022-08-01T13:12:07;101769.09;;;19.13;54.58
11856;BME280;5987;53.140;8.904;2022-08-01T13:15:28;101770.59;;;19.33;54.88
11856;BME280;5987;53.140;8.904;2022-08-01T13:18:35;101778.19;;;19.69;53.56
11856;BME280;5987;53.140;8.904;2022-08-01T13:21:39;101780.44;;;19.47;55.15
11856;BME280;5987;53.140;8.904;2022-08-01T13:25:10;101789.03;;;19.36;56.15
11856;BME280;5987;53.140;8.904;2022-08-01T13:28:18;101786.75;;;19.30;55.53
11856;BME280;5987;53.140;8.904;2022-08-01T13:31:32;101789.28;;;19.17;55.53
11856;BME280;5987;53.140;8.904;2022-08-01T13:34:36;101787.47;;;19.17;55.70
11856;BME280;5987;53.140;8.904;2022-08-01T13:37:41;101797.78;;;19.08;56.06
11856;BME280;5987;53.140;8.904;2022-08-01T13:40:46;101796.84;;;19.09;55.31
11856;BME280;5987;53.140;8.904;2022-08-01T13:43:49;101794.88;;;18.96;55.36
11856;BME280;5987;53.140;8.904;2022-08-01T13:47:02;101795.88;;;19.26;54.95
11856;BME280;5987;53.140;8.904;2022-08-01T13:50:17;101800.53;;;19.67;55.22
11856;BME280;5987;53.140;8.904;2022-08-01T13:53:21;101793.88;;;19.74;54.38
11856;BME280;5987;53.140;8.904;2022-08-01T13:56:26;101791.75;;;19.50;55.03
11856;BME280;5987;53.140;8.904;2022-08-01T13:59:30;101801.22;;;19.40;53.78
11856;BME280;5987;53.140;8.904;2022-08-01T14:02:36;101796.50;;;19.45;54.20
11856;BME280;5987;53.140;8.904;2022-08-01T14:05:40;101792.81;;;19.48;54.46
11856;BME280;5987;53.140;8.904;2022-08-01T14:08:44;101797.34;;;19.76;53.58
11856;BME280;5987;53.140;8.904;2022-08-01T14:11:48;101792.84;;;19.77;52.91
11856;BME280;5987;53.140;8.904;2022-08-01T14:14:52;101803.84;;;19.56;52.72
11856;BME280;5987;53.140;8.904;2022-08-01T14:17:58;101788.44;;;19.31;53.57
11856;BME280;5987;53.140;8.904;2022-08-01T14:21:03;101794.50;;;18.86;54.07
11856;BME280;5987;53.140;8.904;2022-08-01T14:24:08;101800.00;;;19.15;54.10
11856;BME280;5987;53.140;8.904;2022-08-01T14:27:11;101803.56;;;19.30;54.15
11856;BME280;5987;53.140;8.904;2022-08-01T14:30:15;101803.28;;;18.89;54.81
11856;BME280;5987;53.140;8.904;2022-08-01T14:33:20;101792.09;;;19.14;54.63
11856;BME280;5987;53.140;8.904;2022-08-01T14:36:24;101786.88;;;18.96;53.93
11856;BME280;5987;53.140;8.904;2022-08-01T14:39:32;101785.78;;;19.31;53.75
11856;BME280;5987;53.140;8.904;2022-08-01T14:42:36;101793.19;;;19.26;53.91
11856;BME280;5987;53.140;8.904;2022-08-01T14:45:40;101789.94;;;19.20;53.98
11856;BME280;5987;53.140;8.904;2022-08-01T14:48:45;101798.84;;;18.89;53.88
11856;BME280;5987;53.140;8.904;2022-08-01T14:51:49;101802.56;;;18.69;54.55
11856;BME280;5987;53.140;8.904;2022-08-01T14:54:52;101802.28;;;18.58;54.16
11856;BME280;5987;53.140;8.904;2022-08-01T14:57:56;101802.66;;;18.83;54.10
11856;BME280;5987;53.140;8.904;2022-08-01T15:01:00;101804.50;;;19.29;53.69
11856;BME280;5987;53.140;8.904;2022-08-01T15:04:05;101810.56;;;19.17;54.31
11856;BME280;5987;53.140;8.904;2022-08-01T15:07:11;101808.50;;;18.90;52.90
11856;BME280;5987;53.140;8.904;2022-08-01T15:10:15;101808.00;;;18.99;53.33
11856;BME280;5987;53.140;8.904;2022-08-01T15:13:19;101798.06;;;19.33;51.80
11856;BME280;5987;53.140;8.904;2022-08-01T15:16:23;101801.84;;;18.99;52.24
11856;BME280;5987;53.140;8.904;2022-08-01T15:19:29;101800.19;;;18.96;53.30
11856;BME280;5987;53.140;8.904;2022-08-01T15:22:33;101799.25;;;18.97;53.28
11856;BME280;5987;53.140;8.904;2022-08-01T15:25:37;101800.84;;;19.46;53.04
11856;BME280;5987;53.140;8.904;2022-08-01T15:28:43;101816.00;;;19.76;51.97
11856;BME280;5987;53.140;8.904;2022-08-01T15:31:46;101803.19;;;19.52;51.31
11856;BME280;5987;53.140;8.904;2022-08-01T15:34:52;101808.44;;;19.68;51.34
11856;BME280;5987;53.140;8.904;2022-08-01T15:37:56;101815.94;;;19.92;51.05
11856;BME280;5987;53.140;8.904;2022-08-01T15:41:00;101811.97;;;19.39;51.07
11856;BME280;5987;53.140;8.904;2022-08-01T15:44:04;101812.22;;;19.50;50.95
11856;BME280;5987;53.140;8.904;2022-08-01T15:47:09;101818.72;;;19.30;50.78
11856;BME280;5987;53.140;8.904;2022-08-01T15:50:14;101821.31;;;18.99;51.16
11856;BME280;5987;53.140;8.904;2022-08-01T15:53:18;101815.72;;;19.20;52.13
11856;BME280;5987;53.140;8.904;2022-08-01T15:56:21;101819.44;;;19.01;52.33
11856;BME280;5987;53.140;8.904;2022-08-01T15:59:26;101828.69;;;19.10;51.88
11856;BME280;5987;53.140;8.904;2022-08-01T16:02:30;101818.75;;;18.98;51.98
11856;BME280;5987;53.140;8.904;2022-08-01T16:05:36;101819.50;;;18.68;52.66
11856;BME280;5987;53.140;8.904;2022-08-01T16:08:44;101831.25;;;18.64;53.04
11856;BME280;5987;53.140;8.904;2022-08-01T16:11:48;101823.22;;;18.97;52.54
11856;BME280;5987;53.140;8.904;2022-08-01T16:14:52;101826.53;;;18.85;52.86
11856;BME280;5987;53.140;8.904;2022-08-01T16:17:56;101833.13;;;18.78;52.81
11856;BME280;5987;53.140;8.904;2022-08-01T16:21:05;101832.97;;;18.81;53.49
11856;BME280;5987;53.140;8.904;2022-08-01T16:24:09;101833.28;;;18.43;53.40